createdAt,value
2017-06-17T00:00:59.277Z,101305
2017-06-17T00:03:27.943Z,101305
2017-06-17T00:05:56.121Z,101307
2017-06-17T00:08:24.402Z,101317
2017-06-17T00:10:52.964Z,101308
2017-06-17T00:13:21.147Z,101316
2017-06-17T00:15:49.531Z,101311
2017-06-17T00:18:18.055Z,101309
2017-06-17T00:20:46.343Z,101308
2017-06-17T00:23:14.531Z,101308
2017-06-17T00:25:43.138Z,101308
2017-06-17T00:28:11.350Z,101306
2017-06-17T00:30:40.291Z,101307
2017-06-17T00:33:09.104Z,101310
2017-06-17T00:35:37.300Z,101309
2017-06-17T00:38:05.491Z,101310
2017-06-17T00:40:34.218Z,101318
2017-06-17T00:43:02.522Z,101316
2017-06-17T00:45:30.805Z,101320
2017-06-17T00:48:00.182Z,101319
2017-06-17T00:50:28.378Z,101320
2017-06-17T00:52:56.572Z,101315
2017-06-17T00:55:25.090Z,101319
2017-06-17T00:57:53.269Z,101314
2017-06-17T01:00:21.483Z,101311
2017-06-17T01:02:50.011Z,101309
2017-06-17T01:05:18.211Z,101314
2017-06-17T01:07:46.425Z,101312
2017-06-17T01:10:15.066Z,101314
2017-06-17T01:12:43.250Z,101313
2017-06-17T01:15:11.463Z,101310
2017-06-17T01:17:40.046Z,101306
2017-06-17T01:20:08.240Z,101315
2017-06-17T01:22:36.439Z,101309
2017-06-17T01:25:04.959Z,101302
2017-06-17T01:27:33.137Z,101301
2017-06-17T01:30:02.079Z,101311
2017-06-17T01:32:30.623Z,101304
2017-06-17T01:34:58.779Z,101299
2017-06-17T01:37:26.973Z,101306
2017-06-17T01:39:55.590Z,101313
2017-06-17T01:42:23.765Z,101312
2017-06-17T01:44:51.976Z,101305
2017-06-17T01:47:20.507Z,101308
2017-06-17T01:49:48.673Z,101300
2017-06-17T01:52:16.861Z,101293
2017-06-17T01:54:45.445Z,101307
2017-06-17T01:57:13.582Z,101303
2017-06-17T01:59:41.756Z,101311
2017-06-17T02:02:10.281Z,101302
2017-06-17T02:04:38.465Z,101295
2017-06-17T02:07:06.677Z,101296
2017-06-17T02:09:35.212Z,101287
2017-06-17T02:12:03.562Z,101291
2017-06-17T02:14:31.733Z,101298
2017-06-17T02:17:00.385Z,101293
2017-06-17T02:19:29.375Z,101301
2017-06-17T02:21:57.542Z,101296
2017-06-17T02:24:26.834Z,101299
2017-06-17T02:26:55.017Z,101299
2017-06-17T02:29:23.961Z,101297
2017-06-17T02:31:52.470Z,101296
2017-06-17T02:34:21.817Z,101292
2017-06-17T02:36:50.046Z,101302
2017-06-17T02:39:18.598Z,101302
2017-06-17T02:41:46.795Z,101293
2017-06-17T02:44:14.965Z,101293
2017-06-17T02:46:43.501Z,101296
2017-06-17T02:49:11.716Z,101293
2017-06-17T02:51:39.897Z,101292
2017-06-17T02:54:08.457Z,101303
2017-06-17T02:56:36.644Z,101297
2017-06-17T02:59:04.831Z,101299
2017-06-17T03:01:33.382Z,101299
2017-06-17T03:04:01.551Z,101309
2017-06-17T03:06:29.717Z,101314
2017-06-17T03:08:58.226Z,101319
2017-06-17T03:11:29.030Z,101315
2017-06-17T03:13:57.206Z,101316
2017-06-17T03:16:25.910Z,101316
2017-06-17T03:18:54.113Z,101322
2017-06-17T03:21:23.038Z,101317
2017-06-17T03:23:51.545Z,101323
2017-06-17T03:26:19.723Z,101320
2017-06-17T03:28:47.926Z,101332
2017-06-17T03:31:16.477Z,101328
2017-06-17T03:33:44.643Z,101334
2017-06-17T03:36:12.810Z,101328
2017-06-17T03:38:41.407Z,101324
2017-06-17T03:41:09.599Z,101324
2017-06-17T03:43:37.792Z,101331
2017-06-17T03:46:06.339Z,101332
2017-06-17T03:48:34.630Z,101332
2017-06-17T03:51:02.803Z,101337
2017-06-17T03:53:31.371Z,101338
2017-06-17T03:55:59.554Z,101338
2017-06-17T03:58:27.727Z,101342
2017-06-17T04:00:56.227Z,101338
2017-06-17T04:03:24.399Z,101339
2017-06-17T04:05:53.339Z,101344
2017-06-17T04:08:21.942Z,101348
2017-06-17T04:10:50.205Z,101342
2017-06-17T04:13:18.407Z,101339
2017-06-17T04:15:46.971Z,101343
2017-06-17T04:18:15.220Z,101346
2017-06-17T04:20:43.398Z,101335
2017-06-17T04:23:12.031Z,101347
2017-06-17T04:25:40.211Z,101335
2017-06-17T04:28:09.154Z,101342
2017-06-17T04:30:37.738Z,101348
2017-06-17T04:33:05.919Z,101356
2017-06-17T04:35:34.103Z,101348
2017-06-17T04:38:02.643Z,101352
2017-06-17T04:40:30.831Z,101347
2017-06-17T04:42:59.019Z,101338
2017-06-17T04:45:27.559Z,101345
2017-06-17T04:47:55.728Z,101346
2017-06-17T04:50:23.899Z,101343
2017-06-17T04:52:52.534Z,101344
2017-06-17T04:55:20.695Z,101346
2017-06-17T04:57:48.878Z,101347
2017-06-17T05:00:17.455Z,101351
2017-06-17T05:02:45.813Z,101347
2017-06-17T05:05:13.994Z,101346
2017-06-17T05:07:42.603Z,101352
2017-06-17T05:10:10.775Z,101363
2017-06-17T05:12:38.951Z,101363
2017-06-17T05:15:07.491Z,101343
2017-06-17T05:17:35.683Z,101352
2017-06-17T05:20:03.844Z,101366
2017-06-17T05:22:32.366Z,101355
2017-06-17T05:25:00.930Z,101352
2017-06-17T05:27:29.176Z,101343
2017-06-17T05:29:57.786Z,101339
2017-06-17T05:32:25.961Z,101338
2017-06-17T05:34:54.331Z,101344
2017-06-17T05:37:23.994Z,101339
2017-06-17T05:39:52.269Z,101359
2017-06-17T05:42:20.451Z,101356
2017-06-17T05:44:49.078Z,101347
2017-06-17T05:47:17.267Z,101358
2017-06-17T05:49:45.473Z,101357
2017-06-17T05:52:14.223Z,101360
2017-06-17T05:54:42.417Z,101368
2017-06-17T05:57:10.627Z,101365
2017-06-17T05:59:39.139Z,101372
2017-06-17T06:02:07.339Z,101375
2017-06-17T06:04:35.540Z,101377
2017-06-17T06:07:04.149Z,101372
2017-06-17T06:09:32.344Z,101380
2017-06-17T06:12:00.533Z,101376
2017-06-17T06:14:29.106Z,101385
2017-06-17T06:16:57.301Z,101382
2017-06-17T06:19:25.489Z,101390
2017-06-17T06:21:53.999Z,101386
2017-06-17T06:24:22.159Z,101382
2017-06-17T06:26:50.330Z,101392
2017-06-17T06:29:18.834Z,101393
2017-06-17T06:31:47.026Z,101399
2017-06-17T06:34:15.207Z,101387
2017-06-17T06:36:43.782Z,101388
2017-06-17T06:39:12.091Z,101398
2017-06-17T06:41:41.036Z,101396
2017-06-17T06:44:09.642Z,101401
2017-06-17T06:46:37.935Z,101404
2017-06-17T06:49:06.876Z,101415
2017-06-17T06:51:35.506Z,101418
2017-06-17T06:54:04.441Z,101415
2017-06-17T06:56:32.644Z,101424
2017-06-17T06:59:01.197Z,101425
2017-06-17T07:01:29.478Z,101432
2017-06-17T07:03:57.694Z,101413
2017-06-17T07:06:26.255Z,101420
2017-06-17T07:08:54.432Z,101418
2017-06-17T07:11:22.679Z,101407
2017-06-17T07:13:51.395Z,101427
2017-06-17T07:16:19.578Z,101425
2017-06-17T07:18:47.748Z,101429
2017-06-17T07:21:16.258Z,101419
2017-06-17T07:23:44.450Z,101433
2017-06-17T07:26:12.642Z,101433
2017-06-17T07:28:41.368Z,101427
2017-06-17T07:31:09.554Z,101442
2017-06-17T07:33:38.507Z,101434
2017-06-17T07:36:07.219Z,101441
2017-06-17T07:38:35.398Z,101442
2017-06-17T07:41:04.338Z,101438
2017-06-17T07:43:32.943Z,101450
2017-06-17T07:46:01.193Z,101439
2017-06-17T07:48:29.364Z,101442
2017-06-17T07:50:57.874Z,101458
2017-06-17T07:53:26.082Z,101435
2017-06-17T07:55:54.278Z,101453
2017-06-17T07:58:22.912Z,101451
2017-06-17T08:00:51.120Z,101442
2017-06-17T08:03:19.349Z,101440
2017-06-17T08:05:47.871Z,101449
2017-06-17T08:08:16.797Z,101457
2017-06-17T08:10:44.944Z,101452
2017-06-17T08:13:13.471Z,101453
2017-06-17T08:15:41.658Z,101460
2017-06-17T08:18:09.821Z,101456
2017-06-17T08:20:38.321Z,101462
2017-06-17T08:23:06.488Z,101466
2017-06-17T08:25:34.677Z,101460
2017-06-17T08:28:03.993Z,101454
2017-06-17T08:30:32.955Z,101461
2017-06-17T08:33:01.151Z,101462
2017-06-17T08:35:30.513Z,101462
2017-06-17T08:37:58.677Z,101456
2017-06-17T08:40:26.948Z,101469
2017-06-17T08:42:55.491Z,101455
2017-06-17T08:45:24.459Z,101446
2017-06-17T08:47:52.662Z,101460
2017-06-17T08:50:21.173Z,101448
2017-06-17T08:52:49.475Z,101456
2017-06-17T08:55:17.675Z,101445
2017-06-17T08:57:46.959Z,101451
2017-06-17T09:00:15.146Z,101453
2017-06-17T09:02:44.090Z,101455
2017-06-17T09:05:12.761Z,101462
2017-06-17T09:07:41.019Z,101456
2017-06-17T09:10:09.238Z,101463
2017-06-17T09:12:37.923Z,101472
2017-06-17T09:15:06.259Z,101467
2017-06-17T09:17:34.467Z,101464
2017-06-17T09:20:03.093Z,101481
2017-06-17T09:22:32.042Z,101472
2017-06-17T09:25:01.779Z,101470
2017-06-17T09:27:32.177Z,101478
2017-06-17T09:30:00.470Z,101481
2017-06-17T09:32:28.642Z,101482
2017-06-17T09:34:57.285Z,101482
2017-06-17T09:37:25.468Z,101480
2017-06-17T09:39:53.679Z,101481
2017-06-17T09:42:22.302Z,101475
2017-06-17T09:44:50.575Z,101476
2017-06-17T09:47:18.827Z,101468
2017-06-17T09:49:48.125Z,101474
2017-06-17T09:52:17.135Z,101479
2017-06-17T09:54:45.337Z,101480
2017-06-17T09:57:13.887Z,101482
2017-06-17T09:59:42.113Z,101477
2017-06-17T10:02:14.058Z,101483
2017-06-17T10:04:42.250Z,101473
2017-06-17T10:07:10.480Z,101472
2017-06-17T10:09:39.104Z,101489
2017-06-17T10:12:07.385Z,101481
2017-06-17T10:14:35.571Z,101479
2017-06-17T10:17:04.257Z,101484
2017-06-17T10:19:32.469Z,101484
2017-06-17T10:22:00.656Z,101497
2017-06-17T10:24:29.419Z,101489
2017-06-17T10:26:57.627Z,101491
2017-06-17T10:29:25.849Z,101494
2017-06-17T10:31:54.522Z,101501
2017-06-17T10:34:22.710Z,101506
2017-06-17T10:36:50.872Z,101490
2017-06-17T10:39:19.427Z,101509
2017-06-17T10:41:47.695Z,101509
2017-06-17T10:44:16.087Z,101517
2017-06-17T10:46:44.680Z,101511
2017-06-17T10:49:12.920Z,101522
2017-06-17T10:51:41.305Z,101523
2017-06-17T10:54:09.832Z,101527
2017-06-17T10:56:38.143Z,101515
2017-06-17T10:59:06.347Z,101521
2017-06-17T11:01:36.509Z,101527
2017-06-17T11:04:05.452Z,101519
2017-06-17T11:06:33.632Z,101520
2017-06-17T11:09:02.219Z,101523
2017-06-17T11:11:30.465Z,101522
2017-06-17T11:13:58.677Z,101529
2017-06-17T11:16:27.259Z,101521
2017-06-17T11:18:55.456Z,101535
2017-06-17T11:21:23.619Z,101530
2017-06-17T11:23:52.184Z,101534
2017-06-17T11:26:20.402Z,101522
2017-06-17T11:28:48.617Z,101526
2017-06-17T11:31:16.855Z,101526
2017-06-17T11:33:45.029Z,101529
2017-06-17T11:36:13.228Z,101525
2017-06-17T11:38:41.822Z,101538
2017-06-17T11:41:10.017Z,101544
2017-06-17T11:43:38.239Z,101530
2017-06-17T11:46:06.535Z,101537
2017-06-17T11:48:34.741Z,101546
2017-06-17T11:51:02.952Z,101549
2017-06-17T11:53:31.484Z,101549
2017-06-17T11:55:59.727Z,101529
2017-06-17T11:58:27.995Z,101537
2017-06-17T12:00:56.616Z,101549
2017-06-17T12:03:24.811Z,101540
2017-06-17T12:05:53.125Z,101541
2017-06-17T12:08:21.665Z,101534
2017-06-17T12:10:49.864Z,101539
2017-06-17T12:13:18.077Z,101544
2017-06-17T12:15:46.679Z,101531
2017-06-17T12:18:14.860Z,101539
2017-06-17T12:20:43.063Z,101539
2017-06-17T12:23:12.008Z,101543
2017-06-17T12:25:40.224Z,101549
2017-06-17T12:28:09.201Z,101559
2017-06-17T12:30:37.465Z,101550
2017-06-17T12:33:05.723Z,101550
2017-06-17T12:35:33.914Z,101536
2017-06-17T12:38:02.492Z,101544
2017-06-17T12:40:30.759Z,101542
2017-06-17T12:42:58.957Z,101557
2017-06-17T12:45:28.223Z,101541
2017-06-17T12:47:56.440Z,101550
2017-06-17T12:50:24.664Z,101545
2017-06-17T12:52:53.324Z,101553
2017-06-17T12:55:21.561Z,101557
2017-06-17T12:57:50.532Z,101546
2017-06-17T13:00:19.818Z,101550
2017-06-17T13:02:48.079Z,101565
2017-06-17T13:05:16.260Z,101569
2017-06-17T13:07:44.792Z,101564
2017-06-17T13:10:12.994Z,101563
2017-06-17T13:12:41.164Z,101565
2017-06-17T13:15:10.856Z,101558
2017-06-17T13:17:39.055Z,101565
2017-06-17T13:20:07.264Z,101562
2017-06-17T13:22:35.903Z,101557
2017-06-17T13:25:04.113Z,101587
2017-06-17T13:27:32.288Z,101572
2017-06-17T13:30:00.804Z,101567
2017-06-17T13:32:29.761Z,101565
2017-06-17T13:34:58.072Z,101566
2017-06-17T13:37:26.338Z,101572
2017-06-17T13:39:55.302Z,101560
2017-06-17T13:42:24.522Z,101568
2017-06-17T13:44:53.195Z,101579
2017-06-17T13:47:21.482Z,101579
2017-06-17T13:49:49.683Z,101574
2017-06-17T13:52:17.912Z,101583
2017-06-17T13:54:46.088Z,101585
2017-06-17T13:57:14.299Z,101585
2017-06-17T13:59:42.534Z,101578
2017-06-17T14:02:10.775Z,101573
2017-06-17T14:04:39.003Z,101576
2017-06-17T14:07:08.349Z,101579
2017-06-17T14:09:36.563Z,101564
2017-06-17T14:12:04.850Z,101574
2017-06-17T14:14:33.072Z,101570
2017-06-17T14:17:01.357Z,101586
2017-06-17T14:19:29.568Z,101581
2017-06-17T14:22:03.623Z,101590
2017-06-17T14:24:31.793Z,101581
2017-06-17T14:27:00.035Z,101585
2017-06-17T14:29:29.556Z,101600
2017-06-17T14:31:58.486Z,101577
2017-06-17T14:34:26.679Z,101589
2017-06-17T14:36:55.317Z,101594
2017-06-17T14:39:23.494Z,101587
2017-06-17T14:41:51.667Z,101590
2017-06-17T14:44:20.295Z,101602
2017-06-17T14:46:48.462Z,101597
2017-06-17T14:49:16.653Z,101595
2017-06-17T14:51:45.265Z,101592
2017-06-17T14:54:14.218Z,101596
2017-06-17T14:56:42.387Z,101605
2017-06-17T14:59:10.597Z,101598
2017-06-17T15:01:39.545Z,101601
2017-06-17T15:04:07.733Z,101595
2017-06-17T15:06:36.318Z,101604
2017-06-17T15:09:04.551Z,101617
2017-06-17T15:11:32.755Z,101604
2017-06-17T15:14:01.059Z,101602
2017-06-17T15:16:29.987Z,101598
2017-06-17T15:18:58.178Z,101598
2017-06-17T15:21:26.720Z,101608
2017-06-17T15:23:55.679Z,101600
2017-06-17T15:26:23.874Z,101606
2017-06-17T15:28:53.183Z,101607
2017-06-17T15:31:22.159Z,101604
2017-06-17T15:33:50.322Z,101609
2017-06-17T15:36:18.847Z,101604
2017-06-17T15:38:47.040Z,101596
2017-06-17T15:41:15.196Z,101602
2017-06-17T15:43:44.656Z,101601
2017-06-17T15:46:12.835Z,101597
2017-06-17T15:48:41.302Z,101596
2017-06-17T15:51:10.564Z,101587
2017-06-17T15:53:38.809Z,101581
2017-06-17T15:56:07.760Z,101597
2017-06-17T15:58:35.958Z,101593
2017-06-17T16:01:04.881Z,101596
2017-06-17T16:03:33.050Z,101590
2017-06-17T16:06:01.265Z,101596
2017-06-17T16:08:29.531Z,101595
2017-06-17T16:10:57.722Z,101590
2017-06-17T16:13:26.302Z,101593
2017-06-17T16:15:54.545Z,101595
2017-06-17T16:18:22.741Z,101592
2017-06-17T16:20:51.323Z,101590
2017-06-17T16:23:19.571Z,101594
2017-06-17T16:25:47.759Z,101595
2017-06-17T16:28:16.254Z,101599
2017-06-17T16:30:44.437Z,101600
2017-06-17T16:33:12.605Z,101612
2017-06-17T16:35:40.820Z,101604
2017-06-17T16:38:09.015Z,101607
2017-06-17T16:40:37.203Z,101613
2017-06-17T16:43:05.423Z,101598
2017-06-17T16:45:34.401Z,101600
2017-06-17T16:48:02.575Z,101601
2017-06-17T16:50:30.783Z,101603
2017-06-17T16:52:58.950Z,101608
2017-06-17T16:55:27.879Z,101618
2017-06-17T16:57:56.348Z,101612
2017-06-17T17:00:24.806Z,101618
2017-06-17T17:02:53.026Z,101622
2017-06-17T17:05:21.240Z,101613
2017-06-17T17:07:50.167Z,101626
2017-06-17T17:10:18.334Z,101618
2017-06-17T17:12:46.602Z,101622
2017-06-17T17:15:14.771Z,101627
2017-06-17T17:17:42.951Z,101625
2017-06-17T17:20:11.587Z,101623
2017-06-17T17:22:39.775Z,101619
2017-06-17T17:25:07.956Z,101608
2017-06-17T17:27:36.545Z,101607
2017-06-17T17:30:04.716Z,101609
2017-06-17T17:32:33.671Z,101604
2017-06-17T17:35:02.265Z,101603
2017-06-17T17:37:30.456Z,101603
2017-06-17T17:39:59.417Z,101603
2017-06-17T17:42:27.996Z,101604
2017-06-17T17:44:56.162Z,101599
2017-06-17T17:47:24.332Z,101601
2017-06-17T17:49:52.924Z,101607
2017-06-17T17:52:21.103Z,101608
2017-06-17T17:54:49.277Z,101618
2017-06-17T17:57:17.865Z,101618
2017-06-17T17:59:46.074Z,101622
2017-06-17T18:02:14.263Z,101623
2017-06-17T18:04:42.878Z,101622
2017-06-17T18:07:11.075Z,101630
2017-06-17T18:09:39.271Z,101624
2017-06-17T18:12:08.269Z,101620
2017-06-17T18:14:36.455Z,101628
2017-06-17T18:17:04.633Z,101625
2017-06-17T18:19:32.990Z,101629
2017-06-17T18:22:02.009Z,101633
2017-06-17T18:24:30.234Z,101626
2017-06-17T18:26:58.438Z,101639
2017-06-17T18:29:26.622Z,101636
2017-06-17T18:31:54.804Z,101641
2017-06-17T18:34:23.335Z,101645
2017-06-17T18:36:51.491Z,101649
2017-06-17T18:39:19.660Z,101639
2017-06-17T18:41:47.916Z,101641
2017-06-17T18:44:16.105Z,101640
2017-06-17T18:46:44.288Z,101642
2017-06-17T18:49:12.882Z,101640
2017-06-17T18:51:41.099Z,101638
2017-06-17T18:54:09.332Z,101640
2017-06-17T18:56:37.847Z,101638
2017-06-17T18:59:06.069Z,101643
2017-06-17T19:01:34.251Z,101643
2017-06-17T19:04:02.798Z,101643
2017-06-17T19:06:31.017Z,101653
2017-06-17T19:08:59.204Z,101652
2017-06-17T19:11:28.567Z,101647
2017-06-17T19:13:56.876Z,101651
2017-06-17T19:16:25.069Z,101656
2017-06-17T19:18:53.693Z,101663
2017-06-17T19:21:21.864Z,101654
2017-06-17T19:23:50.055Z,101654
2017-06-17T19:26:18.294Z,101651
2017-06-17T19:28:46.530Z,101663
2017-06-17T19:31:14.717Z,101660
2017-06-17T19:33:42.935Z,101661
2017-06-17T19:36:11.123Z,101666
2017-06-17T19:38:39.286Z,101667
2017-06-17T19:43:41.993Z,101658
2017-06-17T19:46:10.551Z,101667
2017-06-17T19:48:38.738Z,101661
2017-06-17T19:51:06.919Z,101664
2017-06-17T19:53:35.488Z,101658
2017-06-17T19:56:03.661Z,101669
2017-06-17T19:58:31.896Z,101669
2017-06-17T20:01:00.411Z,101668
2017-06-17T20:03:28.624Z,101657
2017-06-17T20:05:56.871Z,101669
2017-06-17T20:08:25.172Z,101673
2017-06-17T20:10:53.335Z,101675
2017-06-17T20:13:21.570Z,101670
2017-06-17T20:15:53.570Z,101682
2017-06-17T20:18:21.746Z,101683
2017-06-17T20:20:49.958Z,101686
2017-06-17T20:23:18.212Z,101700
2017-06-17T20:25:46.393Z,101698
2017-06-17T20:28:14.667Z,101691
2017-06-17T20:30:44.030Z,101702
2017-06-17T20:33:12.230Z,101700
2017-06-17T20:35:41.204Z,101705
2017-06-17T20:38:09.715Z,101714
2017-06-17T20:40:38.650Z,101714
2017-06-17T20:43:06.850Z,101697
2017-06-17T20:45:35.121Z,101700
2017-06-17T20:48:03.285Z,101701
2017-06-17T20:50:31.505Z,101705
2017-06-17T20:53:00.166Z,101706
2017-06-17T20:55:28.350Z,101725
2017-06-17T20:57:57.627Z,101729
2017-06-17T21:00:25.866Z,101727
2017-06-17T21:02:54.063Z,101733
2017-06-17T21:05:22.285Z,101734
2017-06-17T21:07:51.275Z,101731
2017-06-17T21:10:20.297Z,101736
2017-06-17T21:12:48.565Z,101741
2017-06-17T21:15:17.192Z,101738
2017-06-17T21:17:45.452Z,101738
2017-06-17T21:20:13.724Z,101736
2017-06-17T21:22:42.363Z,101749
2017-06-17T21:25:10.597Z,101748
2017-06-17T21:27:38.799Z,101757
2017-06-17T21:30:08.166Z,101757
2017-06-17T21:32:36.363Z,101755
2017-06-17T21:35:05.504Z,101761
2017-06-17T21:37:33.715Z,101764
2017-06-17T21:40:02.182Z,101763
2017-06-17T21:42:30.514Z,101775
2017-06-17T21:45:00.476Z,101770
2017-06-17T21:47:28.655Z,101774
2017-06-17T21:49:57.439Z,101781
2017-06-17T21:52:25.646Z,101783
2017-06-17T21:54:55.126Z,101788
2017-06-17T21:57:23.303Z,101789
2017-06-17T21:59:51.538Z,101781
2017-06-17T22:02:19.744Z,101781
2017-06-17T22:04:47.932Z,101778
2017-06-17T22:07:16.522Z,101780
2017-06-17T22:09:44.760Z,101775
2017-06-17T22:12:12.980Z,101776
2017-06-17T22:14:42.003Z,101771
2017-06-17T22:17:10.155Z,101772
2017-06-17T22:19:38.316Z,101770
2017-06-17T22:22:07.651Z,101771
2017-06-17T22:24:35.826Z,101754
2017-06-17T22:27:04.092Z,101775
2017-06-17T22:29:32.718Z,101770
2017-06-17T22:32:00.924Z,101762
2017-06-17T22:34:29.853Z,101762
2017-06-17T22:36:58.457Z,101765
2017-06-17T22:39:27.566Z,101772
2017-06-17T22:41:55.760Z,101763
2017-06-17T22:44:25.075Z,101769
2017-06-17T22:46:53.306Z,101768
2017-06-17T22:49:21.499Z,101772
2017-06-17T22:51:50.021Z,101772
2017-06-17T22:54:18.183Z,101767
2017-06-17T22:56:46.365Z,101773
2017-06-17T22:59:14.987Z,101774
2017-06-17T23:01:43.189Z,101770
2017-06-17T23:04:12.114Z,101783
2017-06-17T23:06:40.330Z,101774
2017-06-17T23:09:08.543Z,101783
2017-06-17T23:11:36.715Z,101792
2017-06-17T23:14:05.252Z,101793
2017-06-17T23:16:33.415Z,101775
2017-06-17T23:19:01.647Z,101782
2017-06-17T23:21:29.870Z,101780
2017-06-17T23:23:58.030Z,101774
2017-06-17T23:26:26.221Z,101774
2017-06-17T23:28:55.258Z,101780
2017-06-17T23:31:23.427Z,101780
2017-06-17T23:33:51.614Z,101772
2017-06-17T23:36:22.485Z,101782
2017-06-17T23:38:50.934Z,101775
2017-06-17T23:41:19.131Z,101774
2017-06-17T23:43:47.343Z,101777
2017-06-17T23:46:15.543Z,101781
2017-06-17T23:48:43.712Z,101774
2017-06-17T23:51:12.343Z,101776
2017-06-17T23:53:40.543Z,101774
2017-06-17T23:56:08.741Z,101778
2017-06-17T23:58:36.975Z,101786
